Time;durP1;ratioP1;P1;durP2;ratioP2;P2;SDS_P1;SDS_P2;PMS_P1;PMS_P2;Temp;Humidity;BMP_temperature;BMP_pressure;BME280_temperature;BME280_humidity;BME280_pressure;Samples;Min_cycle;Max_cycle;Signal;HPM_P1;HPM_P2
2022/08/08 00:02:39;;;;;;;2.72;1.15;;;;;;;17.88;55.47;101018.19;4936580;29;20051;-83
2022/08/08 00:05:27;;;;;;;2.25;1.00;;;;;;;17.79;55.71;101014.81;4935606;29;20039;-84
2022/08/08 00:08:21;;;;;;;3.55;1.20;;;;;;;17.79;55.77;101020.34;4935523;29;20038;-84
2022/08/08 00:11:05;;;;;;;6.18;1.38;;;;;;;17.71;55.94;101017.44;4935385;29;20102;-83
2022/08/08 00:13:40;;;;;;;4.63;1.90;;;;;;;17.52;56.50;101014.63;4935487;29;20470;-84
2022/08/08 00:16:21;;;;;;;4.53;1.83;;;;;;;17.54;56.54;101017.03;4935314;29;20041;-84
2022/08/08 00:18:53;;;;;;;3.50;1.70;;;;;;;17.48;56.65;101019.28;4935318;29;20027;-84
2022/08/08 00:21:25;;;;;;;4.20;1.70;;;;;;;17.53;56.76;101012.69;4934212;29;20036;-84
2022/08/08 00:23:58;;;;;;;4.40;1.67;;;;;;;17.46;57.08;101027.06;4935307;29;20498;-84
2022/08/08 00:26:29;;;;;;;5.65;1.83;;;;;;;17.32;57.41;101021.25;4935144;29;20031;-84
2022/08/08 00:29:18;;;;;;;4.25;1.60;;;;;;;17.35;57.36;101023.28;4934152;29;20042;-84
2022/08/08 00:31:49;;;;;;;5.63;1.45;;;;;;;17.30;57.70;101018.03;4935653;29;20410;-84
2022/08/08 00:37:36;;;;;;;4.53;1.73;;;;;;;17.24;58.03;101019.50;4935233;29;20242;-84
2022/08/08 00:40:17;;;;;;;4.70;1.77;;;;;;;17.09;58.64;101021.09;4935458;29;20063;-84
2022/08/08 00:42:54;;;;;;;5.07;1.50;;;;;;;17.07;58.55;101009.66;4935119;29;20042;-84
2022/08/08 00:45:53;;;;;;;4.63;1.80;;;;;;;16.86;59.19;101012.69;4935055;29;20032;-84
2022/08/08 00:49:00;;;;;;;4.38;1.70;;;;;;;16.95;59.21;101018.78;4935207;29;20559;-85
2022/08/08 00:51:44;;;;;;;5.82;2.05;;;;;;;16.90;59.33;101010.81;4935146;29;20088;-84
2022/08/08 00:54:15;;;;;;;3.90;2.10;;;;;;;16.83;59.54;101010.66;4933769;29;20525;-84
2022/08/08 00:57:18;;;;;;;3.72;1.38;;;;;;;16.68;60.16;101006.75;4934991;29;20368;-85
2022/08/08 01:00:01;;;;;;;3.83;1.50;;;;;;;16.76;59.90;101015.97;4935171;29;20055;-84
2022/08/08 01:02:58;;;;;;;4.43;1.80;;;;;;;16.77;59.98;101018.34;4934972;29;20536;-85
2022/08/08 01:06:00;;;;;;;6.35;2.15;;;;;;;16.76;59.98;101016.75;4933796;29;20036;-85
2022/08/08 01:08:47;;;;;;;3.72;1.58;;;;;;;16.74;60.07;101018.28;4934810;29;20031;-85
2022/08/08 01:11:34;;;;;;;5.53;1.75;;;;;;;16.39;61.44;101024.41;4934779;29;20036;-85
2022/08/08 01:14:08;;;;;;;4.70;1.60;;;;;;;16.46;61.11;101019.13;4934769;29;20035;-85
2022/08/08 01:16:55;;;;;;;5.82;1.98;;;;;;;16.61;61.08;101022.22;4934759;29;20110;-85
2022/08/08 01:19:47;;;;;;;5.20;1.63;;;;;;;16.49;61.26;101023.13;4934994;29;20099;-86
2022/08/08 01:22:36;;;;;;;5.10;1.63;;;;;;;16.64;60.75;101024.28;4934838;29;20463;-85
2022/08/08 01:25:32;;;;;;;4.95;1.90;;;;;;;16.66;60.63;101024.72;4934963;29;20375;-85
2022/08/08 01:28:48;;;;;;;5.15;1.70;;;;;;;16.52;61.16;101027.91;4935809;29;20433;-85
2022/08/08 01:31:28;;;;;;;3.90;1.80;;;;;;;16.40;61.59;101026.00;4945355;29;20074;-85
2022/08/08 01:34:25;;;;;;;3.67;1.70;;;;;;;16.15;62.61;101024.53;4937194;29;20332;-85
2022/08/08 01:37:20;;;;;;;4.45;1.92;;;;;;;16.09;63.13;101023.19;4940458;29;20058;-85
2022/08/08 01:39:51;;;;;;;4.45;1.55;;;;;;;16.52;61.74;101020.44;4939459;29;20051;-85
2022/08/08 01:42:29;;;;;;;4.07;1.98;;;;;;;16.17;62.66;101023.03;4938845;29;20028;-85
2022/08/08 01:45:39;;;;;;;3.90;1.40;;;;;;;16.37;62.41;101014.94;4937912;29;20039;-85
2022/08/08 01:48:33;;;;;;;5.35;1.52;;;;;;;16.38;62.20;101009.06;4938484;29;20048;-84
2022/08/08 01:51:13;;;;;;;4.10;1.52;;;;;;;16.11;63.34;101018.13;4937984;29;20042;-85
2022/08/08 01:53:44;;;;;;;3.70;1.60;;;;;;;16.37;62.54;101012.19;4938094;29;20090;-85
2022/08/08 01:56:44;;;;;;;3.80;1.80;;;;;;;16.37;62.19;101007.47;4937876;29;20032;-85
2022/08/08 01:59:24;;;;;;;5.03;2.00;;;;;;;16.36;62.41;101016.88;4937077;29;20055;-84
2022/08/08 02:02:01;;;;;;;3.83;1.67;;;;;;;16.34;62.82;101016.44;4938122;29;20107;-85
2022/08/08 02:04:52;;;;;;;3.88;1.58;;;;;;;16.44;62.78;101018.66;4938107;29;20058;-85
2022/08/08 02:07:47;;;;;;;2.85;1.23;;;;;;;16.28;62.92;101017.81;4936684;29;20118;-85
2022/08/08 02:10:38;;;;;;;4.40;1.67;;;;;;;16.32;62.63;101021.50;4937041;29;20083;-85
2022/08/08 02:13:21;;;;;;;5.35;1.67;;;;;;;16.20;63.34;101018.78;4938150;29;20039;-85
2022/08/08 02:16:25;;;;;;;4.70;1.42;;;;;;;16.25;63.16;101022.06;4940350;29;20024;-85
2022/08/08 02:19:32;;;;;;;4.28;1.85;;;;;;;16.19;63.46;101022.69;4944266;29;20078;-85
2022/08/08 02:22:30;;;;;;;5.20;1.85;;;;;;;16.04;64.05;101034.44;4957974;29;20062;-85
2022/08/08 02:25:20;;;;;;;4.15;1.67;;;;;;;15.89;64.63;101024.97;4957324;29;20047;-85
2022/08/08 02:28:09;;;;;;;5.40;2.25;;;;;;;15.84;64.99;101019.75;4943618;29;20501;-85
2022/08/08 02:30:46;;;;;;;5.88;2.50;;;;;;;15.76;65.38;101024.22;4942694;29;20071;-86
2022/08/08 02:33:26;;;;;;;5.20;1.90;;;;;;;15.75;65.41;101011.63;4938216;29;20043;-84
2022/08/08 02:36:25;;;;;;;3.80;1.90;;;;;;;15.74;65.34;101018.25;4938347;29;20055;-84
2022/08/08 02:39:03;;;;;;;4.35;2.08;;;;;;;15.75;65.58;101014.38;4936975;29;20039;-85
2022/08/08 02:41:51;;;;;;;5.32;2.17;;;;;;;15.70;65.80;101020.13;4936602;29;20439;-85
2022/08/08 02:44:40;;;;;;;6.97;2.70;;;;;;;15.61;66.29;101016.69;4937102;29;20129;-84
2022/08/08 02:47:25;;;;;;;4.78;1.83;;;;;;;15.57;66.68;101015.75;4936732;29;20126;-84
2022/08/08 02:50:00;;;;;;;5.28;2.10;;;;;;;15.51;66.55;101015.22;4936808;29;20059;-84
2022/08/08 02:52:37;;;;;;;4.40;1.77;;;;;;;15.57;66.83;101021.25;4936601;29;20048;-84
2022/08/08 02:55:22;;;;;;;4.72;1.75;;;;;;;15.63;66.60;101014.44;4936731;29;20039;-84
2022/08/08 02:58:24;;;;;;;3.70;1.65;;;;;;;15.62;66.66;101018.31;4937936;29;20067;-88
2022/08/08 03:01:20;;;;;;;6.18;1.80;;;;;;;15.53;66.95;101012.13;4941614;29;20031;-91
2022/08/08 03:04:23;;;;;;;5.35;2.40;;;;;;;15.42;67.42;101013.72;4937837;29;20039;-89
2022/08/08 03:06:54;;;;;;;6.53;2.50;;;;;;;15.43;67.58;101015.31;4937763;29;20067;-87
2022/08/08 03:10:05;;;;;;;5.63;1.98;;;;;;;15.40;67.79;101025.06;4937680;29;20378;-89
2022/08/08 03:12:53;;;;;;;4.95;2.05;;;;;;;15.18;68.42;101012.63;4957362;29;20047;-92
2022/08/08 03:15:40;;;;;;;5.53;2.35;;;;;;;15.34;68.01;101021.75;4939139;29;20050;-91
2022/08/08 03:18:10;;;;;;;6.00;2.28;;;;;;;15.36;68.01;101024.16;4938366;29;20447;-91
2022/08/08 03:20:46;;;;;;;5.70;2.53;;;;;;;15.31;68.18;101025.19;4952568;29;20039;-90
2022/08/08 03:23:12;;;;;;;5.47;2.17;;;;;;;15.27;68.42;101028.94;4938165;29;20404;-92
2022/08/08 03:25:38;;;;;;;5.47;2.10;;;;;;;15.20;68.56;101024.03;4937870;29;20294;-91
2022/08/08 03:28:13;;;;;;;5.80;2.30;;;;;;;15.21;68.73;101030.34;4937986;29;20490;-90
2022/08/08 03:30:42;;;;;;;5.25;2.08;;;;;;;15.18;68.89;101033.75;4940168;29;20028;-85
2022/08/08 03:33:17;;;;;;;5.50;2.50;;;;;;;15.18;68.90;101033.75;4936169;29;20042;-86
2022/08/08 03:35:43;;;;;;;4.97;2.05;;;;;;;15.07;69.15;101036.16;4936491;29;20083;-87
2022/08/08 03:38:08;;;;;;;6.15;2.58;;;;;;;15.09;69.48;101039.34;4936528;29;20451;-87
2022/08/08 03:40:34;;;;;;;6.03;2.55;;;;;;;15.02;69.87;101028.97;4937760;29;20494;-86
2022/08/08 03:43:00;;;;;;;6.47;2.85;;;;;;;15.00;70.07;101036.75;4935518;29;20363;-88
2022/08/08 03:45:28;;;;;;;5.30;2.35;;;;;;;14.96;70.24;101037.78;4939038;29;20040;-89
2022/08/08 03:47:57;;;;;;;4.75;2.22;;;;;;;14.87;70.72;101037.88;4937966;29;20040;-84
2022/08/08 03:50:23;;;;;;;5.05;2.05;;;;;;;14.91;70.86;101044.25;4935797;29;20478;-84
2022/08/08 03:52:48;;;;;;;;;;;;;;;14.80;71.02;101039.56;4935881;29;20027;-84
2022/08/08 03:55:17;;;;;;;5.65;2.30;;;;;;;14.82;71.17;101043.56;4936042;29;20325;-84
2022/08/08 03:58:00;;;;;;;5.25;2.42;;;;;;;14.74;71.67;101049.94;4935758;29;20038;-84
2022/08/08 04:00:26;;;;;;;6.68;2.90;;;;;;;14.75;71.67;101062.50;4936178;29;20036;-84
2022/08/08 04:03:02;;;;;;;5.68;2.97;;;;;;;14.78;71.27;101056.38;4935803;29;20028;-84
2022/08/08 04:05:29;;;;;;;7.03;3.38;;;;;;;14.80;71.54;101048.59;4935735;29;20035;-84
2022/08/08 04:07:57;;;;;;;5.85;2.83;;;;;;;14.94;70.87;101060.03;4936158;29;20215;-84
2022/08/08 04:10:22;;;;;;;6.70;2.10;;;;;;;14.86;71.11;101057.41;4935602;29;20035;-84
2022/08/08 04:12:48;;;;;;;6.47;2.80;;;;;;;14.87;71.13;101059.78;4935519;29;20045;-84
2022/08/08 04:15:13;;;;;;;4.70;1.73;;;;;;;14.91;71.25;101057.16;4935824;29;20071;-84
2022/08/08 04:17:39;;;;;;;5.75;2.63;;;;;;;14.85;71.33;101064.03;4936118;29;20474;-84
2022/08/08 04:20:06;;;;;;;6.05;2.00;;;;;;;14.81;71.35;101060.38;4935663;29;20383;-83
2022/08/08 04:22:31;;;;;;;6.40;2.88;;;;;;;14.73;71.55;101064.78;4935565;29;20046;-83
2022/08/08 04:24:57;;;;;;;4.97;2.33;;;;;;;14.78;71.42;101070.06;4935265;29;20122;-83
2022/08/08 04:27:23;;;;;;;6.32;2.38;;;;;;;14.79;71.25;101068.94;4935635;29;20109;-84
2022/08/08 04:29:49;;;;;;;5.55;2.80;;;;;;;14.78;71.75;101066.50;4950256;28;20424;-84
2022/08/08 04:32:14;;;;;;;5.78;2.28;;;;;;;14.87;71.33;101068.03;4935513;29;20118;-83
2022/08/08 04:34:40;;;;;;;7.07;2.60;;;;;;;14.89;71.18;101067.69;4934031;29;20040;-83
2022/08/08 04:37:06;;;;;;;4.93;1.75;;;;;;;14.88;71.32;101071.56;4935520;29;20042;-84
2022/08/08 04:39:31;;;;;;;5.05;2.13;;;;;;;14.99;71.37;101064.50;4934019;29;20036;-84
2022/08/08 04:41:57;;;;;;;5.95;2.60;;;;;;;15.02;71.01;101069.31;4933982;29;20032;-84
2022/08/08 04:44:22;;;;;;;5.80;2.88;;;;;;;15.10;70.71;101073.88;4935099;29;20035;-84
2022/08/08 04:46:48;;;;;;;7.28;2.22;;;;;;;15.02;70.59;101072.84;4935556;29;20459;-83
2022/08/08 04:49:13;;;;;;;4.38;1.77;;;;;;;15.01;70.76;101073.19;4935649;29;20106;-84
2022/08/08 04:51:38;;;;;;;5.40;2.13;;;;;;;15.04;70.55;101075.25;4936318;29;20047;-84
2022/08/08 04:54:04;;;;;;;;;;;;;;;15.03;70.55;101074.44;4936600;29;20071;-84
2022/08/08 04:56:38;;;;;;;7.00;2.97;;;;;;;15.01;70.52;101075.94;4936524;29;19970;-85
2022/08/08 04:59:03;;;;;;;5.32;2.40;;;;;;;15.07;70.55;101079.25;4934576;29;20071;-85
2022/08/08 05:01:29;;;;;;;4.32;1.90;;;;;;;15.09;70.58;101082.44;4936067;29;20130;-83
2022/08/08 05:03:54;;;;;;;;;;;;;;;14.93;71.13;101085.03;4937738;29;20039;-78
2022/08/08 05:06:19;;;;;;;4.33;2.10;;;;;;;14.80;71.87;101083.44;4938372;29;19918;-78
2022/08/08 05:08:46;;;;;;;5.25;2.55;;;;;;;14.81;71.91;101082.31;4938501;29;20256;-78
2022/08/08 05:11:13;;;;;;;;;;;;;;;14.88;71.50;101077.84;4938754;29;20063;-77
2022/08/08 05:13:40;;;;;;;5.30;2.70;;;;;;;14.85;71.79;101083.22;4938564;29;20020;-77
2022/08/08 05:16:05;;;;;;;6.35;3.03;;;;;;;14.68;72.54;101082.25;4936799;29;20459;-77
2022/08/08 05:18:32;;;;;;;5.65;2.90;;;;;;;14.69;72.67;101081.13;4938092;29;20082;-77
2022/08/08 05:20:58;;;;;;;6.00;2.60;;;;;;;14.73;72.78;101082.03;4936845;29;20042;-77
2022/08/08 05:23:24;;;;;;;5.68;2.85;;;;;;;14.78;72.51;101094.75;4938044;29;20027;-77
2022/08/08 05:25:50;;;;;;;7.25;3.60;;;;;;;14.59;73.39;101088.97;4938163;29;20032;-77
2022/08/08 05:28:16;;;;;;;6.07;2.97;;;;;;;14.68;73.21;101084.22;4938276;29;20118;-77
2022/08/08 05:30:41;;;;;;;6.53;3.08;;;;;;;14.91;72.29;101081.84;4938221;29;20397;-80
2022/08/08 05:33:07;;;;;;;;;;;;;;;15.01;71.90;101081.41;4938321;29;20483;-77
2022/08/08 05:35:33;;;;;;;6.38;3.00;;;;;;;15.06;71.45;101078.44;4937954;29;20006;-78
2022/08/08 05:38:03;;;;;;;5.88;3.15;;;;;;;14.95;71.85;101082.78;4938168;29;20031;-78
2022/08/08 05:40:30;;;;;;;6.80;2.88;;;;;;;14.99;71.45;101089.19;4937892;29;20382;-75
2022/08/08 05:43:01;;;;;;;;;;;;;;;14.98;71.66;101082.91;4936882;29;20045;-76
2022/08/08 05:45:28;;;;;;;5.10;2.53;;;;;;;15.12;71.33;101087.28;4937942;29;20017;-76
2022/08/08 05:47:55;;;;;;;7.88;3.20;;;;;;;15.30;70.75;101096.88;4952719;29;20046;-77
2022/08/08 05:50:22;;;;;;;6.50;2.92;;;;;;;15.34;70.71;101090.34;4938315;29;20040;-77
2022/08/08 05:52:48;;;;;;;5.65;2.70;;;;;;;15.41;70.50;101094.47;4937555;29;20032;-77
2022/08/08 05:55:14;;;;;;;7.07;3.58;;;;;;;15.36;70.58;101098.25;4937810;29;20386;-77
2022/08/08 05:57:39;;;;;;;26.77;3.90;;;;;;;15.23;71.17;101097.44;4937937;29;20071;-77
2022/08/08 06:00:07;;;;;;;9.77;3.47;;;;;;;15.28;70.82;101096.38;4940984;29;20035;-86
2022/08/08 06:05:20;;;;;;;6.45;3.35;;;;;;;15.53;70.11;101099.94;4943351;29;20050;-88
2022/08/08 06:07:48;;;;;;;7.32;3.40;;;;;;;15.53;70.50;101102.69;4944835;29;20115;-89
2022/08/08 06:10:14;;;;;;;7.47;3.40;;;;;;;15.86;69.35;101108.06;4944203;29;20387;-87
2022/08/08 06:12:43;;;;;;;6.53;3.30;;;;;;;15.86;68.86;101111.59;4967529;29;20046;-89
2022/08/08 06:15:10;;;;;;;7.28;3.42;;;;;;;15.75;69.43;101113.22;4951620;29;20035;-87
2022/08/08 06:17:38;;;;;;;9.13;3.85;;;;;;;15.88;68.65;101114.00;4953965;29;20043;-88
2022/08/08 06:20:07;;;;;;;7.80;3.40;;;;;;;15.98;68.11;101118.22;4955384;29;20075;-88
2022/08/08 06:22:32;;;;;;;13.32;5.15;;;;;;;16.03;68.47;101115.25;4955668;29;20031;-86
2022/08/08 06:24:58;;;;;;;9.13;3.83;;;;;;;16.13;67.93;101121.06;4952944;29;20034;-86
2022/08/08 06:27:39;;;;;;;7.85;3.60;;;;;;;16.14;67.68;101125.41;4944668;29;20099;-87
2022/08/08 06:30:08;;;;;;;6.60;3.33;;;;;;;16.16;67.29;101133.31;4941390;29;20099;-87
2022/08/08 06:32:44;;;;;;;7.95;3.58;;;;;;;16.24;67.56;101124.91;4941496;29;20347;-87
2022/08/08 06:35:12;;;;;;;6.43;3.17;;;;;;;16.15;67.44;101135.25;4939819;29;20047;-85
2022/08/08 06:37:44;;;;;;;7.78;3.67;;;;;;;16.40;66.96;101135.97;4938625;29;20071;-86
2022/08/08 06:40:13;;;;;;;8.35;3.78;;;;;;;16.98;65.48;101127.34;4940136;29;20451;-85
2022/08/08 06:42:42;;;;;;;7.20;3.80;;;;;;;17.83;61.98;101128.66;4944187;29;20031;-86
2022/08/08 06:45:08;;;;;;;7.53;3.53;;;;;;;18.57;60.32;101127.47;4946035;29;20044;-87
2022/08/08 06:47:34;;;;;;;;;;;;;;;19.24;56.92;101118.84;4948682;29;20383;-87
2022/08/08 06:50:00;;;;;;;4.60;2.25;;;;;;;19.50;55.91;101121.66;4945677;29;19914;-87
2022/08/08 06:52:26;;;;;;;5.85;2.80;;;;;;;19.62;55.76;101122.63;4943291;29;20027;-88
2022/08/08 06:54:54;;;;;;;5.55;2.65;;;;;;;19.41;55.82;101118.34;4943699;29;20032;-88
2022/08/08 06:57:20;;;;;;;5.80;2.60;;;;;;;19.68;55.37;101126.69;4937799;29;20151;-88
2022/08/08 06:59:45;;;;;;;6.03;3.10;;;;;;;19.88;54.48;101125.41;4938874;29;20050;-88
2022/08/08 07:02:19;;;;;;;6.20;2.67;;;;;;;19.72;54.99;101124.78;4937843;29;20028;-87
2022/08/08 07:04:53;;;;;;;7.30;2.97;;;;;;;19.97;54.85;101130.63;4937765;29;20317;-87
2022/08/08 07:07:28;;;;;;;9.85;2.80;;;;;;;19.84;54.53;101124.56;4936975;29;20092;-89
2022/08/08 07:10:01;;;;;;;6.82;2.80;;;;;;;20.32;53.34;101138.59;4937983;29;20035;-88
2022/08/08 07:12:53;;;;;;;6.47;2.70;;;;;;;20.32;53.42;101133.91;4938559;29;20027;-90
2022/08/08 07:15:35;;;;;;;5.60;2.75;;;;;;;19.52;54.98;101133.13;4938447;29;20032;-89
2022/08/08 07:18:06;;;;;;;5.50;2.88;;;;;;;19.43;56.36;101135.34;4938194;29;20122;-88
2022/08/08 07:20:36;;;;;;;5.13;2.80;;;;;;;19.34;56.60;101134.81;4938465;29;20118;-88
2022/08/08 07:23:09;;;;;;;6.50;2.97;;;;;;;19.40;56.38;101141.59;4937892;29;20305;-88
2022/08/08 07:25:39;;;;;;;5.78;2.92;;;;;;;19.31;56.68;101145.78;4939408;29;20102;-88
2022/08/08 07:28:10;;;;;;;5.60;2.75;;;;;;;19.44;57.04;101153.50;4937382;29;20027;-88
2022/08/08 07:30:37;;;;;;;7.70;3.67;;;;;;;19.43;56.16;101149.16;4938947;29;20036;-87
2022/08/08 07:33:03;;;;;;;6.60;3.08;;;;;;;19.41;55.84;101147.94;4946554;29;20091;-87
2022/08/08 07:35:29;;;;;;;5.93;2.80;;;;;;;19.13;56.13;101153.75;4944445;29;20097;-86
2022/08/08 07:37:55;;;;;;;;;;;;;;;19.21;57.40;101152.72;4944841;29;20031;-88
2022/08/08 07:40:21;;;;;;;9.83;4.93;;;;;;;19.36;55.86;101154.56;4939099;29;19918;-88
2022/08/08 07:42:50;;;;;;;7.50;3.50;;;;;;;19.47;56.21;101150.00;4941946;29;20072;-87
2022/08/08 07:45:16;;;;;;;6.63;3.03;;;;;;;19.46;56.39;101158.66;4942841;29;20106;-87
2022/08/08 07:47:41;;;;;;;8.02;3.35;;;;;;;19.58;55.77;101157.69;4940412;29;20044;-89
2022/08/08 07:50:07;;;;;;;;;;;;;;;19.62;54.92;101156.56;4944580;29;20028;-88
2022/08/08 07:52:32;;;;;;;5.70;3.05;;;;;;;19.70;55.40;101157.50;4940360;29;20376;-88
2022/08/08 07:55:02;;;;;;;;;;;;;;;19.59;55.56;101156.53;4943852;29;20039;-86
2022/08/08 07:57:28;;;;;;;8.02;3.05;;;;;;;19.81;54.33;101161.22;4941288;29;19925;-89
2022/08/08 08:00:08;;;;;;;5.63;2.75;;;;;;;19.82;53.50;101152.56;4938637;29;20114;-89
2022/08/08 08:02:39;;;;;;;6.15;2.83;;;;;;;19.86;55.10;101160.91;4939663;29;20035;-88
2022/08/08 08:05:17;;;;;;;7.68;3.25;;;;;;;19.82;54.64;101162.81;4941874;29;20039;-88
2022/08/08 08:07:48;;;;;;;6.13;2.90;;;;;;;19.78;54.71;101161.94;4940471;29;20043;-88
2022/08/08 08:10:18;;;;;;;5.13;2.58;;;;;;;20.05;54.79;101169.06;4937647;29;20035;-88
2022/08/08 08:12:52;;;;;;;5.70;2.40;;;;;;;20.40;53.38;101167.97;4952781;29;20031;-87
2022/08/08 08:15:23;;;;;;;5.70;2.58;;;;;;;20.46;53.68;101168.44;4936769;29;20038;-88
2022/08/08 08:17:49;;;;;;;7.47;3.03;;;;;;;20.60;51.12;101171.38;4938393;29;20095;-88
2022/08/08 08:20:16;;;;;;;6.03;2.30;;;;;;;20.66;51.11;101167.94;4941796;29;20040;-86
2022/08/08 08:22:42;;;;;;;4.93;2.40;;;;;;;20.45;52.21;101170.41;4942624;29;20039;-87
2022/08/08 08:25:08;;;;;;;5.47;2.80;;;;;;;20.49;52.28;101176.81;4940364;29;20131;-90
2022/08/08 08:27:33;;;;;;;;;;;;;;;20.38;52.92;101175.84;4942059;29;20094;-88
2022/08/08 08:29:58;;;;;;;5.80;2.60;;;;;;;20.37;52.50;101175.03;4939130;29;19914;-88
2022/08/08 08:32:24;;;;;;;;;;;;;;;20.58;53.55;101174.53;4944597;29;20260;-87
2022/08/08 08:34:51;;;;;;;5.40;2.72;;;;;;;20.45;52.09;101170.41;4960200;29;19977;-86
2022/08/08 08:37:16;;;;;;;6.93;3.20;;;;;;;20.47;52.94;101170.84;4949701;29;20027;-87
2022/08/08 08:39:42;;;;;;;4.78;2.70;;;;;;;20.68;51.40;101168.34;4943327;29;20035;-86
2022/08/08 08:42:07;;;;;;;6.43;2.78;;;;;;;20.76;50.74;101168.41;4957295;29;20048;-87
2022/08/08 08:44:33;;;;;;;6.65;2.53;;;;;;;20.73;51.05;101173.53;4941299;29;20036;-85
2022/08/08 08:47:01;;;;;;;5.25;2.22;;;;;;;20.95;51.86;101171.00;4937287;29;20095;-84
2022/08/08 08:49:27;;;;;;;5.97;2.50;;;;;;;21.18;50.29;101173.59;4935865;29;20034;-84
2022/08/08 08:51:57;;;;;;;6.28;2.20;;;;;;;21.18;50.18;101168.88;4950898;29;20118;-84
2022/08/08 08:54:24;;;;;;;5.45;2.80;;;;;;;21.40;48.88;101174.63;4935674;29;20147;-86
2022/08/08 08:56:50;;;;;;;4.63;2.35;;;;;;;21.30;49.57;101176.91;4936245;29;20498;-84
2022/08/08 08:59:16;;;;;;;4.57;2.08;;;;;;;21.40;49.59;101171.84;4935446;29;20052;-83
2022/08/08 09:01:43;;;;;;;4.07;2.08;;;;;;;21.36;49.54;101176.56;4935903;29;20031;-85
2022/08/08 09:04:21;;;;;;;3.90;2.00;;;;;;;21.74;47.54;101172.50;4936524;29;20028;-85
2022/08/08 09:06:49;;;;;;;5.10;2.67;;;;;;;21.74;47.82;101164.19;4934384;29;20028;-85
2022/08/08 09:09:24;;;;;;;5.07;2.20;;;;;;;21.77;48.36;101166.97;4935548;29;20027;-84
2022/08/08 09:11:51;;;;;;;5.03;2.10;;;;;;;21.48;48.63;101176.25;4935435;29;20046;-85
2022/08/08 09:14:21;;;;;;;4.70;2.20;;;;;;;21.62;49.14;101171.63;4935371;29;20526;-85
2022/08/08 09:16:49;;;;;;;4.78;2.45;;;;;;;21.65;47.94;101172.03;4935629;29;20040;-84
2022/08/08 09:19:15;;;;;;;4.47;2.05;;;;;;;22.00;47.46;101174.25;4935714;29;20055;-84
2022/08/08 09:21:41;;;;;;;4.47;2.10;;;;;;;22.13;47.49;101165.25;4935472;29;20109;-84
2022/08/08 09:24:08;;;;;;;5.50;1.90;;;;;;;22.02;47.41;101166.38;4935464;29;20465;-82
2022/08/08 09:26:41;;;;;;;4.30;1.92;;;;;;;22.15;46.62;101171.19;4935724;29;20031;-82
2022/08/08 09:29:07;;;;;;;4.88;2.00;;;;;;;22.42;46.93;101157.06;4939599;29;20121;-86
2022/08/08 09:31:41;;;;;;;5.47;2.38;;;;;;;22.49;45.97;101166.22;4940577;29;20487;-85
2022/08/08 09:34:07;;;;;;;4.13;1.65;;;;;;;22.40;46.48;101162.22;4937518;29;20044;-85
2022/08/08 09:36:37;;;;;;;5.05;2.10;;;;;;;22.20;46.42;101161.75;4937950;29;20537;-86
2022/08/08 09:39:04;;;;;;;4.88;2.10;;;;;;;22.34;45.95;101161.81;4936529;29;20032;-84
2022/08/08 09:41:33;;;;;;;4.53;1.85;;;;;;;22.50;45.92;101162.25;4937294;29;20091;-85
2022/08/08 09:44:08;;;;;;;3.53;1.70;;;;;;;22.44;45.00;101155.50;4937724;29;20093;-88
2022/08/08 09:46:34;;;;;;;3.63;1.70;;;;;;;22.51;46.05;101155.53;4935813;29;20063;-89
2022/08/08 09:49:01;;;;;;;4.63;2.00;;;;;;;22.41;44.20;101161.84;4937396;29;20826;-87
2022/08/08 09:51:30;;;;;;;4.25;1.95;;;;;;;22.40;45.52;101160.25;4938915;29;20036;-88
2022/08/08 09:54:02;;;;;;;4.32;2.10;;;;;;;22.52;45.88;101159.91;4938372;29;20034;-89
2022/08/08 09:56:38;;;;;;;6.22;2.50;;;;;;;22.52;45.45;101157.13;4938565;29;20032;-89
2022/08/08 09:59:05;;;;;;;4.68;1.75;;;;;;;23.00;44.79;101156.06;4939155;29;20036;-88
2022/08/08 10:01:32;;;;;;;4.75;1.95;;;;;;;22.97;43.93;101159.63;4941028;29;20028;-85
2022/08/08 10:03:58;;;;;;;5.43;2.50;;;;;;;22.81;43.44;101163.53;4941305;29;20035;-88
2022/08/08 10:06:24;;;;;;;4.60;2.20;;;;;;;22.70;43.95;101159.16;4942147;29;20050;-89
2022/08/08 10:08:51;;;;;;;5.47;2.20;;;;;;;22.89;43.81;101158.84;4941316;29;20039;-87
2022/08/08 10:11:18;;;;;;;4.30;2.15;;;;;;;22.73;44.14;101158.38;4940193;29;20036;-89
2022/08/08 10:13:58;;;;;;;4.50;1.90;;;;;;;22.62;44.86;101157.53;4939220;29;20024;-88
2022/08/08 10:16:36;;;;;;;4.78;2.05;;;;;;;22.91;45.14;101156.47;4938985;29;20046;-88
2022/08/08 10:19:04;;;;;;;6.00;2.72;;;;;;;22.82;44.33;101158.81;4937813;29;20104;-87
2022/08/08 10:21:32;;;;;;;4.10;2.10;;;;;;;22.68;45.53;101158.75;4938257;29;20028;-86
2022/08/08 10:24:03;;;;;;;4.38;2.10;;;;;;;22.72;45.38;101154.00;4939792;29;20110;-88
2022/08/08 10:26:32;;;;;;;6.57;2.15;;;;;;;22.96;44.72;101147.75;4938084;29;20023;-88
2022/08/08 10:29:06;;;;;;;4.45;2.00;;;;;;;23.12;44.60;101150.13;4939878;29;20032;-87
2022/08/08 10:34:19;;;;;;;4.85;2.00;;;;;;;23.82;41.89;101147.75;4955369;29;20063;-87
2022/08/08 10:36:46;;;;;;;6.43;2.00;;;;;;;23.51;42.80;101144.59;4944890;29;20063;-87
2022/08/08 10:39:19;;;;;;;4.75;2.00;;;;;;;23.66;42.08;101148.97;4942753;29;20047;-85
2022/08/08 10:41:55;;;;;;;4.88;2.28;;;;;;;23.48;42.08;101150.94;4939014;29;20378;-86
2022/08/08 10:44:29;;;;;;;4.90;2.08;;;;;;;23.82;41.85;101144.97;4940114;29;20036;-88
2022/08/08 10:46:54;;;;;;;4.15;1.77;;;;;;;23.65;40.54;101138.25;4939301;29;20040;-89
2022/08/08 10:49:22;;;;;;;3.25;1.75;;;;;;;23.34;40.69;101142.59;4938672;29;20035;-87
2022/08/08 10:51:48;;;;;;;4.40;1.67;;;;;;;23.48;41.92;101145.38;4939923;29;20035;-88
2022/08/08 10:54:21;;;;;;;4.82;2.33;;;;;;;23.64;41.90;101148.56;4940068;29;20043;-88
2022/08/08 10:56:56;;;;;;;4.38;2.17;;;;;;;24.06;40.54;101143.34;4939631;29;20043;-87
2022/08/08 10:59:21;;;;;;;4.28;1.80;;;;;;;23.97;40.60;101149.31;4939799;29;20035;-88
2022/08/08 11:01:47;;;;;;;3.40;1.42;;;;;;;23.97;40.50;101138.19;4937921;29;20031;-87
2022/08/08 11:04:12;;;;;;;4.32;1.90;;;;;;;23.66;41.25;101123.16;4939445;29;20031;-88
2022/08/08 11:06:37;;;;;;;4.07;1.80;;;;;;;23.98;40.71;101129.44;4940286;29;20027;-86
2022/08/08 11:09:05;;;;;;;4.05;1.75;;;;;;;24.13;40.60;101132.97;4939496;29;20075;-88
2022/08/08 11:11:39;;;;;;;3.67;1.65;;;;;;;24.30;39.25;101123.78;4936887;29;20031;-88
2022/08/08 11:14:06;;;;;;;4.22;1.80;;;;;;;24.32;40.44;101125.38;4938827;29;20106;-85
2022/08/08 11:16:33;;;;;;;3.90;1.73;;;;;;;24.45;39.08;101130.09;4938409;29;20131;-85
2022/08/08 11:19:01;;;;;;;8.10;2.88;;;;;;;24.25;39.41;101118.63;4938201;29;20163;-87
2022/08/08 11:21:29;;;;;;;5.53;2.17;;;;;;;24.25;39.00;101129.75;4937797;29;20419;-88
2022/08/08 11:23:58;;;;;;;3.45;1.50;;;;;;;24.34;40.04;101128.53;4939691;29;20055;-86
2022/08/08 11:26:27;;;;;;;3.90;1.80;;;;;;;24.23;39.31;101129.38;4940132;29;20052;-86
2022/08/08 11:28:56;;;;;;;6.35;2.28;;;;;;;24.32;38.67;101122.59;4940327;29;20166;-86
2022/08/08 11:31:26;;;;;;;4.88;1.75;;;;;;;24.54;39.29;101116.53;4940679;29;20043;-85
2022/08/08 11:33:55;;;;;;;3.92;1.42;;;;;;;24.38;38.85;101118.22;4938681;29;20028;-84
2022/08/08 11:36:21;;;;;;;4.45;1.55;;;;;;;24.46;38.97;101112.19;4938600;29;20059;-86
2022/08/08 11:38:47;;;;;;;4.20;1.63;;;;;;;24.87;38.72;101120.72;4937998;29;20068;-85
2022/08/08 11:41:15;;;;;;;3.83;1.50;;;;;;;24.94;37.76;101117.06;4938500;29;20036;-84
2022/08/08 11:43:43;;;;;;;3.13;1.50;;;;;;;24.80;38.04;101123.53;4939530;29;20036;-85
2022/08/08 11:46:09;;;;;;;4.57;1.63;;;;;;;24.98;38.19;101120.63;4937480;29;20035;-86
2022/08/08 11:48:35;;;;;;;4.07;1.75;;;;;;;24.35;38.49;101113.44;4935863;29;20105;-82
2022/08/08 11:51:01;;;;;;;4.25;1.77;;;;;;;24.42;38.47;101108.63;4938035;29;20039;-81
2022/08/08 11:53:27;;;;;;;3.80;1.70;;;;;;;24.06;39.22;101112.75;4937267;29;20438;-86
2022/08/08 11:55:52;;;;;;;9.02;1.90;;;;;;;24.13;39.08;101113.50;4936247;29;20027;-80
2022/08/08 11:58:18;;;;;;;3.95;1.77;;;;;;;24.65;38.92;101115.66;4937543;29;20035;-85
2022/08/08 12:00:49;;;;;;;4.72;1.77;;;;;;;24.68;38.27;101107.28;4937715;29;20121;-86
2022/08/08 12:03:26;;;;;;;3.97;1.35;;;;;;;25.02;37.36;101101.13;4938707;29;20027;-83